createdAt,value
2022-11-06T00:02:39.074Z,23.30
2022-11-06T00:06:49.573Z,34.47
2022-11-06T00:10:50.723Z,21.57
2022-11-06T00:14:52.004Z,23.87
2022-11-06T00:18:54.201Z,21.93
2022-11-06T00:22:55.395Z,22.30
2022-11-06T00:26:56.811Z,45.50
2022-11-06T00:31:06.559Z,35.20
2022-11-06T00:35:07.873Z,42.00
2022-11-06T00:39:11.051Z,38.53
2022-11-06T00:43:12.399Z,39.37
2022-11-06T00:47:13.576Z,47.00
2022-11-06T00:51:18.152Z,44.50
2022-11-06T00:55:19.257Z,40.83
2022-11-06T00:59:20.461Z,38.67
2022-11-06T01:03:21.717Z,37.77
2022-11-06T01:07:23.668Z,32.83
2022-11-06T01:11:52.416Z,34.40
2022-11-06T01:15:37.202Z,32.33
2022-11-06T01:19:38.350Z,34.73
2022-11-06T01:23:40.010Z,37.20
2022-11-06T01:27:41.186Z,29.93
2022-11-06T01:31:42.535Z,32.27
2022-11-06T01:35:45.764Z,35.17
2022-11-06T01:39:48.827Z,36.77
2022-11-06T01:43:56.688Z,33.20
2022-11-06T01:47:57.968Z,37.10
2022-11-06T01:52:02.966Z,30.70
2022-11-06T01:56:07.511Z,37.97
2022-11-06T02:00:09.885Z,40.63
2022-11-06T02:04:17.635Z,33.97
2022-11-06T02:08:21.383Z,41.23
2022-11-06T02:12:29.245Z,34.53
2022-11-06T02:16:38.364Z,34.93
2022-11-06T02:21:07.271Z,28.67
2022-11-06T02:25:17.962Z,29.10
2022-11-06T02:29:34.872Z,33.33
2022-11-06T02:33:40.032Z,25.30
2022-11-06T02:37:43.808Z,33.73
2022-11-06T02:41:47.256Z,28.23
2022-11-06T02:45:58.432Z,33.63
2022-11-06T02:50:06.571Z,31.20
2022-11-06T02:54:09.827Z,32.50
2022-11-06T02:58:15.168Z,28.30
2022-11-06T03:02:20.405Z,27.10
2022-11-06T03:06:42.169Z,30.63
2022-11-06T03:10:47.018Z,27.23
2022-11-06T03:15:07.517Z,26.50
2022-11-06T03:19:15.260Z,28.53
2022-11-06T03:23:38.306Z,34.57
2022-11-06T03:27:58.557Z,32.00
2022-11-06T03:32:09.618Z,29.07
2022-11-06T03:36:20.600Z,30.37
2022-11-06T03:40:25.411Z,25.93
2022-11-06T03:44:29.938Z,27.70
2022-11-06T03:48:49.832Z,25.67
2022-11-06T03:53:00.921Z,24.43
2022-11-06T03:57:11.517Z,26.27
2022-11-06T04:01:15.704Z,27.67
2022-11-06T04:05:23.281Z,30.63
2022-11-06T04:09:46.625Z,32.13
2022-11-06T04:13:58.398Z,31.63
2022-11-06T04:17:59.378Z,31.77
2022-11-06T04:22:13.021Z,27.13
2022-11-06T04:26:36.316Z,26.43
2022-11-06T04:30:41.255Z,30.53
2022-11-06T04:34:58.048Z,30.67
2022-11-06T04:39:05.784Z,26.80
2022-11-06T04:43:13.748Z,27.83
2022-11-06T04:47:18.779Z,31.90
2022-11-06T04:51:24.081Z,28.67
2022-11-06T04:55:25.719Z,32.27
2022-11-06T04:59:27.539Z,33.37
2022-11-06T05:03:28.550Z,31.07
2022-11-06T05:07:29.755Z,31.27
2022-11-06T05:11:30.805Z,31.07
2022-11-06T05:15:31.809Z,33.27
2022-11-06T05:19:32.994Z,34.80
2022-11-06T05:23:34.176Z,35.53
2022-11-06T05:27:35.213Z,33.33
2022-11-06T05:31:36.508Z,31.00
2022-11-06T05:35:37.667Z,38.77
2022-11-06T05:39:41.786Z,35.97
2022-11-06T05:43:41.870Z,35.07
2022-11-06T05:47:43.191Z,35.13
2022-11-06T05:51:44.383Z,32.10
2022-11-06T05:55:46.806Z,38.07
2022-11-06T05:59:47.938Z,35.00
2022-11-06T06:03:48.977Z,41.50
2022-11-06T06:07:49.968Z,35.40
2022-11-06T06:11:52.070Z,42.07
2022-11-06T06:15:53.428Z,43.10
2022-11-06T06:19:54.580Z,49.63
2022-11-06T06:23:55.735Z,50.13
2022-11-06T06:27:57.464Z,59.73
2022-11-06T06:31:58.593Z,97.97
2022-11-06T06:36:05.483Z,97.13
2022-11-06T06:40:07.598Z,124.07
2022-11-06T06:44:08.613Z,77.33
2022-11-06T06:48:12.192Z,72.53
2022-11-06T06:52:13.667Z,57.57
2022-11-06T06:56:15.387Z,59.70
2022-11-06T07:00:16.661Z,55.40
2022-11-06T07:04:17.926Z,61.93
2022-11-06T07:08:19.126Z,64.73
2022-11-06T07:12:20.411Z,52.97
2022-11-06T07:16:21.926Z,69.23
2022-11-06T07:20:22.959Z,80.47
2022-11-06T07:24:24.148Z,48.50
2022-11-06T07:28:25.336Z,40.20
2022-11-06T07:32:26.928Z,38.47
2022-11-06T07:36:28.101Z,37.47
2022-11-06T07:40:29.367Z,41.70
2022-11-06T07:44:30.593Z,39.50
2022-11-06T07:48:32.587Z,40.53
2022-11-06T07:52:33.872Z,43.00
2022-11-06T07:56:34.920Z,45.53
2022-11-06T08:00:36.820Z,43.67
2022-11-06T08:04:39.188Z,48.87
2022-11-06T08:08:40.386Z,44.23
2022-11-06T08:12:41.563Z,47.87
2022-11-06T08:16:42.656Z,45.07
2022-11-06T08:20:43.789Z,42.73
2022-11-06T08:24:44.931Z,35.60
2022-11-06T08:28:46.080Z,49.00
2022-11-06T08:32:47.214Z,37.20
2022-11-06T08:36:51.635Z,37.60
2022-11-06T08:40:53.989Z,34.90
2022-11-06T08:44:55.598Z,35.63
2022-11-06T08:48:56.842Z,32.43
2022-11-06T08:53:05.899Z,33.10
2022-11-06T08:57:07.376Z,29.17
2022-11-06T09:01:09.218Z,33.03
2022-11-06T09:05:10.800Z,32.77
2022-11-06T09:09:12.335Z,31.53
2022-11-06T09:13:13.824Z,28.87
2022-11-06T09:17:16.119Z,23.73
2022-11-06T09:21:17.236Z,26.10
2022-11-06T09:25:19.620Z,27.63
2022-11-06T09:29:21.118Z,20.37
2022-11-06T09:33:23.495Z,28.80
2022-11-06T09:37:24.947Z,26.70
2022-11-06T09:41:42.279Z,26.40
2022-11-06T09:45:45.386Z,23.37
2022-11-06T09:49:53.246Z,25.20
2022-11-06T09:53:58.055Z,20.47
2022-11-06T09:58:15.564Z,20.03
2022-11-06T10:02:45.144Z,17.90
2022-11-06T10:06:46.425Z,17.80
2022-11-06T10:11:17.679Z,17.80
2022-11-06T10:15:31.830Z,16.87
2022-11-06T10:19:42.241Z,17.53
2022-11-06T10:23:49.830Z,19.43
2022-11-06T10:27:57.889Z,17.10
2022-11-06T10:32:20.764Z,16.23
2022-11-06T10:36:40.996Z,16.00
2022-11-06T10:40:44.148Z,18.03
2022-11-06T10:44:51.898Z,13.83
2022-11-06T10:48:56.887Z,13.70
2022-11-06T10:53:02.066Z,13.57
2022-11-06T10:57:06.919Z,12.07
2022-11-06T11:01:11.870Z,13.17
2022-11-06T11:05:16.021Z,10.57
2022-11-06T11:09:32.422Z,14.90
2022-11-06T11:13:34.299Z,11.73
2022-11-06T11:17:35.567Z,9.47
2022-11-06T11:21:36.739Z,11.93
2022-11-06T11:25:38.514Z,8.43
2022-11-06T11:29:47.413Z,9.30
2022-11-06T11:33:52.166Z,9.10
2022-11-06T11:38:08.896Z,9.60
2022-11-06T11:42:30.926Z,10.10
2022-11-06T11:46:33.233Z,10.83
2022-11-06T11:50:34.508Z,9.77
2022-11-06T11:54:36.710Z,12.17
2022-11-06T11:58:38.168Z,11.50
2022-11-06T12:02:48.991Z,10.90
2022-11-06T12:06:56.870Z,12.23
2022-11-06T12:11:05.945Z,10.00
2022-11-06T12:15:23.287Z,11.40
2022-11-06T12:19:27.899Z,8.97
2022-11-06T12:23:44.999Z,11.50
2022-11-06T12:27:49.916Z,12.47
2022-11-06T12:32:04.086Z,12.13
2022-11-06T12:36:08.059Z,11.53
2022-11-06T12:40:25.045Z,13.30
2022-11-06T12:44:25.130Z,13.80
2022-11-06T12:48:44.867Z,14.40
2022-11-06T12:53:06.104Z,11.23
2022-11-06T12:57:28.587Z,10.13
2022-11-06T13:01:53.003Z,10.07
2022-11-06T13:06:13.205Z,10.17
2022-11-06T13:10:16.905Z,13.17
2022-11-06T13:14:27.638Z,9.87
2022-11-06T13:18:32.648Z,9.43
2022-11-06T13:22:43.459Z,8.83
2022-11-06T13:26:51.221Z,9.03
2022-11-06T13:30:53.525Z,8.47
2022-11-06T13:34:55.795Z,8.73
2022-11-06T13:39:06.448Z,9.53
2022-11-06T13:43:14.486Z,8.63
2022-11-06T13:47:27.669Z,10.77
2022-11-06T13:51:52.235Z,7.23
2022-11-06T13:56:15.113Z,6.73
2022-11-06T14:00:25.203Z,7.17
2022-11-06T14:04:53.286Z,7.10
2022-11-06T14:09:16.799Z,7.80
2022-11-06T14:13:21.467Z,12.57
2022-11-06T14:22:00.245Z,8.17
2022-11-06T14:26:10.230Z,8.43
2022-11-06T14:31:05.703Z,7.40
2022-11-06T14:34:40.133Z,5.43
2022-11-06T14:38:42.208Z,5.07
2022-11-06T14:42:46.385Z,5.10
2022-11-06T14:46:53.407Z,5.90
2022-11-06T14:50:56.038Z,6.23
2022-11-06T14:55:05.444Z,6.50
2022-11-06T14:59:09.832Z,9.17
2022-11-06T15:03:23.603Z,7.37
2022-11-06T15:11:49.587Z,7.30
2022-11-06T15:15:54.283Z,7.00
2022-11-06T15:19:59.254Z,6.93
2022-11-06T15:24:07.167Z,9.13
2022-11-06T15:28:14.560Z,8.47
2022-11-06T15:32:25.017Z,8.87
2022-11-06T15:36:28.292Z,9.53
2022-11-06T15:40:35.684Z,9.57
2022-11-06T15:44:41.460Z,8.77
2022-11-06T15:48:43.296Z,8.33
2022-11-06T15:52:45.638Z,9.90
2022-11-06T15:56:48.478Z,11.53
2022-11-06T16:00:49.565Z,8.23
2022-11-06T16:04:51.320Z,11.07
2022-11-06T16:08:52.575Z,9.30
2022-11-06T16:12:54.870Z,9.23
2022-11-06T16:16:56.848Z,9.53
2022-11-06T16:21:16.590Z,9.70
2022-11-06T16:25:19.658Z,9.37
2022-11-06T16:29:29.908Z,11.17
2022-11-06T16:33:30.972Z,9.50
2022-11-06T16:37:35.209Z,9.90
2022-11-06T16:41:58.516Z,10.20
2022-11-06T16:46:07.730Z,9.90
2022-11-06T16:50:44.577Z,9.57
2022-11-06T16:54:54.871Z,13.93
2022-11-06T16:59:02.721Z,9.00
2022-11-06T17:03:07.678Z,10.10
2022-11-06T17:07:12.541Z,9.53
2022-11-06T17:11:18.771Z,6.70
2022-11-06T17:15:19.955Z,7.10
2022-11-06T17:19:22.348Z,9.27
2022-11-06T17:23:24.793Z,9.13
2022-11-06T17:27:25.948Z,9.77
2022-11-06T17:31:26.934Z,9.03
2022-11-06T17:35:27.996Z,9.87
2022-11-06T17:39:30.189Z,11.43
2022-11-06T17:43:31.202Z,11.10
2022-11-06T17:47:32.358Z,10.90
2022-11-06T17:51:52.166Z,10.60
2022-11-06T17:55:53.477Z,10.50
2022-11-06T17:59:54.462Z,10.50
2022-11-06T18:03:55.296Z,11.43
2022-11-06T18:07:56.300Z,11.07
2022-11-06T18:11:57.822Z,11.17
2022-11-06T18:15:58.931Z,9.63
2022-11-06T18:19:59.919Z,11.37
2022-11-06T18:24:01.591Z,17.33
2022-11-06T18:28:03.931Z,16.73
2022-11-06T18:32:05.573Z,13.50
2022-11-06T18:36:08.826Z,13.13
2022-11-06T18:40:11.131Z,13.53
2022-11-06T18:44:12.100Z,14.53
2022-11-06T18:48:16.962Z,16.03
2022-11-06T18:52:32.556Z,14.90
2022-11-06T18:56:18.813Z,16.60
2022-11-06T19:00:20.556Z,19.57
2022-11-06T19:04:21.840Z,18.13
2022-11-06T19:08:22.832Z,14.00
2022-11-06T19:12:24.086Z,15.43
2022-11-06T19:16:25.064Z,15.40
2022-11-06T19:24:35.318Z,14.73
2022-11-06T19:28:37.359Z,13.00
2022-11-06T19:32:38.721Z,14.73
2022-11-06T19:36:40.160Z,14.80
2022-11-06T19:40:41.270Z,16.97
2022-11-06T19:44:42.443Z,15.10
2022-11-06T19:48:43.867Z,17.47
2022-11-06T19:52:53.263Z,17.85
2022-11-06T19:57:28.466Z,17.73
2022-11-06T20:00:54.370Z,15.67
2022-11-06T20:04:55.607Z,17.47
2022-11-06T20:08:56.832Z,17.07
2022-11-06T20:12:58.736Z,16.03
2022-11-06T20:17:00.311Z,15.63
2022-11-06T20:21:06.710Z,15.80
2022-11-06T20:25:08.544Z,12.77
2022-11-06T20:29:09.844Z,12.37
2022-11-06T20:33:11.474Z,11.97
2022-11-06T20:37:13.046Z,12.77
2022-11-06T20:41:15.646Z,11.27
2022-11-06T20:45:16.942Z,11.73
2022-11-06T20:49:18.192Z,12.03
2022-11-06T20:53:19.601Z,13.98
2022-11-06T20:57:21.172Z,11.97
2022-11-06T21:01:26.500Z,11.13
2022-11-06T21:05:28.041Z,10.60
2022-11-06T21:09:30.724Z,10.73
2022-11-06T21:13:33.552Z,12.13
2022-11-06T21:17:34.887Z,13.87
2022-11-06T21:21:39.119Z,17.23
2022-11-06T21:25:45.015Z,12.10
2022-11-06T21:29:43.207Z,13.93
2022-11-06T21:33:46.988Z,10.70
2022-11-06T21:37:48.192Z,10.17
2022-11-06T21:41:49.467Z,10.27
2022-11-06T21:45:50.786Z,10.00
2022-11-06T21:49:54.713Z,9.63
2022-11-06T21:54:14.729Z,9.70
2022-11-06T21:58:17.156Z,8.87
2022-11-06T22:02:18.753Z,9.33
2022-11-06T22:06:24.140Z,9.17
2022-11-06T22:10:26.691Z,8.47
2022-11-06T22:14:27.863Z,11.53
2022-11-06T22:18:29.028Z,8.93
2022-11-06T22:22:30.320Z,9.10
2022-11-06T22:26:32.971Z,9.70
2022-11-06T22:30:34.131Z,8.70
2022-11-06T22:34:35.323Z,9.23
2022-11-06T22:38:37.534Z,9.90
2022-11-06T22:42:38.687Z,9.70
2022-11-06T22:46:41.993Z,11.33
2022-11-06T22:50:44.273Z,8.83
2022-11-06T22:54:45.527Z,9.83
2022-11-06T22:58:47.226Z,8.73
2022-11-06T23:02:49.420Z,8.97
2022-11-06T23:06:58.988Z,8.53
2022-11-06T23:11:07.419Z,8.57
2022-11-06T23:19:39.310Z,9.33
2022-11-06T23:23:51.054Z,8.77
2022-11-06T23:27:51.978Z,10.93
2022-11-06T23:32:03.767Z,11.23
2022-11-06T23:36:11.342Z,7.30
2022-11-06T23:40:12.578Z,8.03
2022-11-06T23:44:33.458Z,6.70
2022-11-06T23:48:34.852Z,8.53
2022-11-06T23:52:36.108Z,8.30
2022-11-06T23:56:37.276Z,8.40
